sensor_id;sensor_type;location;lat;lon;timestamp;P1;durP1;ratioP1;P2;durP2;ratioP2
17197;SDS011;8715;51.010;6.812;2022-09-29T00:00:53;331.25;;;317.08;;
17197;SDS011;8715;51.010;6.812;2022-09-29T00:03:19;330.27;;;315.88;;
17197;SDS011;8715;51.010;6.812;2022-09-29T00:05:46;335.55;;;320.83;;
17197;SDS011;8715;51.010;6.812;2022-09-29T00:08:21;347.75;;;332.27;;
17197;SDS011;8715;51.010;6.812;2022-09-29T00:10:49;343.85;;;328.75;;
17197;SDS011;8715;51.010;6.812;2022-09-29T00:13:15;334.00;;;319.55;;
17197;SDS011;8715;51.010;6.812;2022-09-29T00:15:41;346.05;;;331.25;;
17197;SDS011;8715;51.010;6.812;2022-09-29T00:18:06;340.63;;;325.88;;
17197;SDS011;8715;51.010;6.812;2022-09-29T00:20:32;349.63;;;334.73;;
17197;SDS011;8715;51.010;6.812;2022-09-29T00:22:58;344.25;;;329.55;;
17197;SDS011;8715;51.010;6.812;2022-09-29T00:25:23;322.38;;;308.65;;
17197;SDS011;8715;51.010;6.812;2022-09-29T00:27:49;344.10;;;328.10;;
17197;SDS011;8715;51.010;6.812;2022-09-29T00:30:14;334.10;;;318.27;;
17197;SDS011;8715;51.010;6.812;2022-09-29T00:32:39;344.73;;;329.75;;
17197;SDS011;8715;51.010;6.812;2022-09-29T00:35:05;331.17;;;316.85;;
17197;SDS011;8715;51.010;6.812;2022-09-29T00:37:32;350.08;;;334.67;;
17197;SDS011;8715;51.010;6.812;2022-09-29T00:39:58;328.90;;;314.17;;
17197;SDS011;8715;51.010;6.812;2022-09-29T00:42:23;346.93;;;331.77;;
17197;SDS011;8715;51.010;6.812;2022-09-29T00:47:41;340.10;;;324.55;;
17197;SDS011;8715;51.010;6.812;2022-09-29T00:50:26;331.77;;;316.85;;
17197;SDS011;8715;51.010;6.812;2022-09-29T00:53:00;330.13;;;315.48;;
17197;SDS011;8715;51.010;6.812;2022-09-29T00:55:29;319.33;;;305.08;;
17197;SDS011;8715;51.010;6.812;2022-09-29T00:58:05;321.75;;;307.02;;
17197;SDS011;8715;51.010;6.812;2022-09-29T01:00:50;301.70;;;287.83;;
17197;SDS011;8715;51.010;6.812;2022-09-29T01:03:16;330.27;;;316.05;;
17197;SDS011;8715;51.010;6.812;2022-09-29T01:05:50;297.60;;;284.23;;
17197;SDS011;8715;51.010;6.812;2022-09-29T01:08:22;320.00;;;305.95;;
17197;SDS011;8715;51.010;6.812;2022-09-29T01:10:51;310.55;;;296.25;;
17197;SDS011;8715;51.010;6.812;2022-09-29T01:13:17;296.50;;;283.05;;
17197;SDS011;8715;51.010;6.812;2022-09-29T01:15:43;303.02;;;289.35;;
17197;SDS011;8715;51.010;6.812;2022-09-29T01:18:08;315.97;;;301.43;;
17197;SDS011;8715;51.010;6.812;2022-09-29T01:20:35;314.17;;;299.85;;
17197;SDS011;8715;51.010;6.812;2022-09-29T01:23:11;329.27;;;314.98;;
17197;SDS011;8715;51.010;6.812;2022-09-29T01:34:00;315.25;;;300.63;;
17197;SDS011;8715;51.010;6.812;2022-09-29T01:39:18;312.00;;;297.17;;
17197;SDS011;8715;51.010;6.812;2022-09-29T01:44:32;307.58;;;293.85;;
17197;SDS011;8715;51.010;6.812;2022-09-29T01:49:34;299.30;;;284.42;;
17197;SDS011;8715;51.010;6.812;2022-09-29T01:52:06;312.23;;;298.25;;
17197;SDS011;8715;51.010;6.812;2022-09-29T01:54:43;302.40;;;288.60;;
17197;SDS011;8715;51.010;6.812;2022-09-29T01:57:11;308.70;;;294.65;;
17197;SDS011;8715;51.010;6.812;2022-09-29T01:59:50;303.60;;;289.15;;
17197;SDS011;8715;51.010;6.812;2022-09-29T02:02:21;297.60;;;283.95;;
17197;SDS011;8715;51.010;6.812;2022-09-29T02:04:53;288.52;;;275.33;;
17197;SDS011;8715;51.010;6.812;2022-09-29T02:07:22;298.08;;;284.85;;
17197;SDS011;8715;51.010;6.812;2022-09-29T02:09:59;281.20;;;268.30;;
17197;SDS011;8715;51.010;6.812;2022-09-29T02:12:27;309.13;;;294.73;;
17197;SDS011;8715;51.010;6.812;2022-09-29T02:14:54;296.40;;;282.63;;
17197;SDS011;8715;51.010;6.812;2022-09-29T02:17:21;304.95;;;290.80;;
17197;SDS011;8715;51.010;6.812;2022-09-29T02:19:50;309.85;;;295.27;;
17197;SDS011;8715;51.010;6.812;2022-09-29T02:22:16;287.23;;;273.55;;
17197;SDS011;8715;51.010;6.812;2022-09-29T02:24:42;290.05;;;276.27;;
17197;SDS011;8715;51.010;6.812;2022-09-29T02:27:09;286.88;;;273.45;;
17197;SDS011;8715;51.010;6.812;2022-09-29T02:29:35;291.58;;;277.23;;
17197;SDS011;8715;51.010;6.812;2022-09-29T02:32:01;303.40;;;289.15;;
17197;SDS011;8715;51.010;6.812;2022-09-29T02:34:31;299.30;;;285.75;;
17197;SDS011;8715;51.010;6.812;2022-09-29T02:42:29;297.10;;;282.70;;
17197;SDS011;8715;51.010;6.812;2022-09-29T02:48:17;279.05;;;265.77;;
17197;SDS011;8715;51.010;6.812;2022-09-29T02:50:35;294.13;;;280.70;;
17197;SDS011;8715;51.010;6.812;2022-09-29T02:58:29;277.70;;;264.42;;
17197;SDS011;8715;51.010;6.812;2022-09-29T03:00:59;278.38;;;264.80;;
17197;SDS011;8715;51.010;6.812;2022-09-29T03:03:24;289.08;;;275.75;;
17197;SDS011;8715;51.010;6.812;2022-09-29T03:05:50;281.80;;;268.98;;
17197;SDS011;8715;51.010;6.812;2022-09-29T03:08:16;288.60;;;274.80;;
17197;SDS011;8715;51.010;6.812;2022-09-29T03:10:41;304.08;;;290.00;;
17197;SDS011;8715;51.010;6.812;2022-09-29T03:13:06;288.50;;;274.90;;
17197;SDS011;8715;51.010;6.812;2022-09-29T03:15:32;286.67;;;272.92;;
17197;SDS011;8715;51.010;6.812;2022-09-29T03:17:57;286.47;;;273.73;;
17197;SDS011;8715;51.010;6.812;2022-09-29T03:20:23;292.85;;;279.40;;
17197;SDS011;8715;51.010;6.812;2022-09-29T03:22:48;291.80;;;277.85;;
17197;SDS011;8715;51.010;6.812;2022-09-29T03:25:14;309.47;;;294.60;;
17197;SDS011;8715;51.010;6.812;2022-09-29T03:27:39;280.27;;;266.75;;
17197;SDS011;8715;51.010;6.812;2022-09-29T03:30:05;304.55;;;290.77;;
17197;SDS011;8715;51.010;6.812;2022-09-29T03:32:31;301.30;;;286.92;;
17197;SDS011;8715;51.010;6.812;2022-09-29T03:34:57;270.97;;;257.90;;
17197;SDS011;8715;51.010;6.812;2022-09-29T03:37:22;292.00;;;278.47;;
17197;SDS011;8715;51.010;6.812;2022-09-29T03:39:47;277.53;;;262.70;;
17197;SDS011;8715;51.010;6.812;2022-09-29T03:42:13;271.80;;;258.43;;
17197;SDS011;8715;51.010;6.812;2022-09-29T03:44:38;280.52;;;266.13;;
17197;SDS011;8715;51.010;6.812;2022-09-29T03:47:03;277.50;;;263.57;;
17197;SDS011;8715;51.010;6.812;2022-09-29T03:49:29;278.67;;;265.23;;
17197;SDS011;8715;51.010;6.812;2022-09-29T03:51:54;280.13;;;266.33;;
17197;SDS011;8715;51.010;6.812;2022-09-29T03:54:19;273.73;;;261.03;;
17197;SDS011;8715;51.010;6.812;2022-09-29T03:56:45;275.67;;;262.65;;
17197;SDS011;8715;51.010;6.812;2022-09-29T03:59:10;284.33;;;270.73;;
17197;SDS011;8715;51.010;6.812;2022-09-29T04:01:36;272.52;;;258.98;;
17197;SDS011;8715;51.010;6.812;2022-09-29T04:04:02;280.35;;;266.75;;
17197;SDS011;8715;51.010;6.812;2022-09-29T04:06:28;287.23;;;273.52;;
17197;SDS011;8715;51.010;6.812;2022-09-29T04:08:53;280.05;;;266.17;;
17197;SDS011;8715;51.010;6.812;2022-09-29T04:11:18;279.60;;;265.43;;
17197;SDS011;8715;51.010;6.812;2022-09-29T04:13:44;275.67;;;262.60;;
17197;SDS011;8715;51.010;6.812;2022-09-29T04:16:09;266.43;;;253.33;;
17197;SDS011;8715;51.010;6.812;2022-09-29T04:18:35;260.43;;;246.87;;
17197;SDS011;8715;51.010;6.812;2022-09-29T04:21:04;287.65;;;273.73;;
17197;SDS011;8715;51.010;6.812;2022-09-29T04:23:30;265.77;;;252.93;;
17197;SDS011;8715;51.010;6.812;2022-09-29T04:25:56;256.80;;;244.40;;
17197;SDS011;8715;51.010;6.812;2022-09-29T04:28:22;288.27;;;274.45;;
17197;SDS011;8715;51.010;6.812;2022-09-29T04:30:48;284.05;;;270.00;;
17197;SDS011;8715;51.010;6.812;2022-09-29T04:33:13;267.97;;;254.90;;
17197;SDS011;8715;51.010;6.812;2022-09-29T04:35:38;258.20;;;245.07;;
17197;SDS011;8715;51.010;6.812;2022-09-29T04:38:04;268.63;;;255.63;;
17197;SDS011;8715;51.010;6.812;2022-09-29T04:40:29;282.45;;;267.52;;
17197;SDS011;8715;51.010;6.812;2022-09-29T04:42:54;277.07;;;263.27;;
17197;SDS011;8715;51.010;6.812;2022-09-29T04:45:20;261.73;;;247.80;;
17197;SDS011;8715;51.010;6.812;2022-09-29T04:47:45;274.38;;;260.88;;
17197;SDS011;8715;51.010;6.812;2022-09-29T04:50:10;271.58;;;257.85;;
17197;SDS011;8715;51.010;6.812;2022-09-29T04:52:36;264.00;;;251.03;;
17197;SDS011;8715;51.010;6.812;2022-09-29T04:55:02;273.27;;;259.33;;
17197;SDS011;8715;51.010;6.812;2022-09-29T04:57:28;271.25;;;257.75;;
17197;SDS011;8715;51.010;6.812;2022-09-29T04:59:53;251.18;;;237.35;;
17197;SDS011;8715;51.010;6.812;2022-09-29T05:02:20;267.90;;;254.95;;
17197;SDS011;8715;51.010;6.812;2022-09-29T05:04:45;268.75;;;255.68;;
17197;SDS011;8715;51.010;6.812;2022-09-29T05:07:11;263.13;;;249.95;;
17197;SDS011;8715;51.010;6.812;2022-09-29T05:09:37;264.85;;;251.88;;
17197;SDS011;8715;51.010;6.812;2022-09-29T05:12:02;272.30;;;259.25;;
17197;SDS011;8715;51.010;6.812;2022-09-29T05:14:28;273.75;;;258.42;;
17197;SDS011;8715;51.010;6.812;2022-09-29T05:16:54;253.70;;;240.30;;
17197;SDS011;8715;51.010;6.812;2022-09-29T05:19:20;266.00;;;252.45;;
17197;SDS011;8715;51.010;6.812;2022-09-29T05:21:45;277.52;;;264.30;;
17197;SDS011;8715;51.010;6.812;2022-09-29T05:24:10;263.33;;;249.32;;
17197;SDS011;8715;51.010;6.812;2022-09-29T05:26:36;258.02;;;243.82;;
17197;SDS011;8715;51.010;6.812;2022-09-29T05:29:01;270.07;;;256.47;;
17197;SDS011;8715;51.010;6.812;2022-09-29T05:31:26;262.10;;;248.03;;
17197;SDS011;8715;51.010;6.812;2022-09-29T05:33:53;267.87;;;253.70;;
17197;SDS011;8715;51.010;6.812;2022-09-29T05:36:19;271.42;;;257.02;;
17197;SDS011;8715;51.010;6.812;2022-09-29T05:38:45;257.80;;;243.80;;
17197;SDS011;8715;51.010;6.812;2022-09-29T05:41:10;266.40;;;251.60;;
17197;SDS011;8715;51.010;6.812;2022-09-29T05:43:37;264.45;;;249.63;;
17197;SDS011;8715;51.010;6.812;2022-09-29T05:46:04;271.80;;;255.48;;
17197;SDS011;8715;51.010;6.812;2022-09-29T05:48:31;282.23;;;266.60;;
17197;SDS011;8715;51.010;6.812;2022-09-29T05:50:56;284.67;;;268.77;;
17197;SDS011;8715;51.010;6.812;2022-09-29T05:53:23;282.25;;;266.15;;
17197;SDS011;8715;51.010;6.812;2022-09-29T05:55:48;279.83;;;264.42;;
17197;SDS011;8715;51.010;6.812;2022-09-29T05:58:14;294.35;;;277.88;;
17197;SDS011;8715;51.010;6.812;2022-09-29T06:00:39;290.50;;;274.90;;
17197;SDS011;8715;51.010;6.812;2022-09-29T06:03:05;317.52;;;294.20;;
17197;SDS011;8715;51.010;6.812;2022-09-29T06:05:31;314.92;;;296.85;;
17197;SDS011;8715;51.010;6.812;2022-09-29T06:07:56;305.33;;;285.88;;
17197;SDS011;8715;51.010;6.812;2022-09-29T06:10:22;295.15;;;279.65;;
17197;SDS011;8715;51.010;6.812;2022-09-29T06:12:47;305.77;;;289.27;;
17197;SDS011;8715;51.010;6.812;2022-09-29T06:15:13;300.08;;;283.15;;
17197;SDS011;8715;51.010;6.812;2022-09-29T06:17:38;299.90;;;280.27;;
17197;SDS011;8715;51.010;6.812;2022-09-29T06:20:04;308.30;;;289.45;;
17197;SDS011;8715;51.010;6.812;2022-09-29T06:22:31;294.13;;;276.52;;
17197;SDS011;8715;51.010;6.812;2022-09-29T06:24:56;281.17;;;265.63;;
17197;SDS011;8715;51.010;6.812;2022-09-29T06:27:22;298.88;;;280.00;;
17197;SDS011;8715;51.010;6.812;2022-09-29T06:29:48;289.17;;;273.73;;
17197;SDS011;8715;51.010;6.812;2022-09-29T06:32:14;284.13;;;269.33;;
17197;SDS011;8715;51.010;6.812;2022-09-29T06:34:39;322.88;;;304.25;;
17197;SDS011;8715;51.010;6.812;2022-09-29T06:37:25;307.98;;;291.35;;
17197;SDS011;8715;51.010;6.812;2022-09-29T06:40:02;298.92;;;281.30;;
17197;SDS011;8715;51.010;6.812;2022-09-29T06:42:28;315.45;;;298.85;;
17197;SDS011;8715;51.010;6.812;2022-09-29T06:44:54;292.17;;;276.20;;
17197;SDS011;8715;51.010;6.812;2022-09-29T06:47:19;301.60;;;284.45;;
17197;SDS011;8715;51.010;6.812;2022-09-29T06:49:45;296.42;;;279.75;;
17197;SDS011;8715;51.010;6.812;2022-09-29T06:52:10;297.40;;;281.17;;
17197;SDS011;8715;51.010;6.812;2022-09-29T06:54:35;308.10;;;290.10;;
17197;SDS011;8715;51.010;6.812;2022-09-29T06:57:01;305.55;;;288.52;;
17197;SDS011;8715;51.010;6.812;2022-09-29T06:59:26;323.47;;;306.87;;
17197;SDS011;8715;51.010;6.812;2022-09-29T07:01:51;303.92;;;288.38;;
17197;SDS011;8715;51.010;6.812;2022-09-29T07:04:17;311.27;;;295.15;;
17197;SDS011;8715;51.010;6.812;2022-09-29T07:06:44;318.02;;;301.27;;
17197;SDS011;8715;51.010;6.812;2022-09-29T07:09:10;315.02;;;295.20;;
17197;SDS011;8715;51.010;6.812;2022-09-29T07:11:39;320.90;;;302.40;;
17197;SDS011;8715;51.010;6.812;2022-09-29T07:14:05;308.50;;;292.40;;
17197;SDS011;8715;51.010;6.812;2022-09-29T07:16:30;332.30;;;314.13;;
17197;SDS011;8715;51.010;6.812;2022-09-29T07:18:55;314.33;;;298.33;;
17197;SDS011;8715;51.010;6.812;2022-09-29T07:21:21;321.23;;;304.87;;
17197;SDS011;8715;51.010;6.812;2022-09-29T07:23:46;308.90;;;291.20;;
17197;SDS011;8715;51.010;6.812;2022-09-29T07:26:12;312.98;;;297.38;;
17197;SDS011;8715;51.010;6.812;2022-09-29T07:28:40;341.83;;;324.55;;
17197;SDS011;8715;51.010;6.812;2022-09-29T07:31:07;324.17;;;307.10;;
17197;SDS011;8715;51.010;6.812;2022-09-29T07:33:34;316.70;;;299.73;;
17197;SDS011;8715;51.010;6.812;2022-09-29T07:35:59;335.45;;;317.95;;
17197;SDS011;8715;51.010;6.812;2022-09-29T07:38:28;324.65;;;308.23;;
17197;SDS011;8715;51.010;6.812;2022-09-29T07:43:26;349.45;;;331.33;;
17197;SDS011;8715;51.010;6.812;2022-09-29T07:45:52;347.10;;;330.40;;
17197;SDS011;8715;51.010;6.812;2022-09-29T07:48:17;343.40;;;326.53;;
17197;SDS011;8715;51.010;6.812;2022-09-29T07:50:43;370.67;;;351.77;;
17197;SDS011;8715;51.010;6.812;2022-09-29T07:53:09;379.77;;;360.73;;
17197;SDS011;8715;51.010;6.812;2022-09-29T07:55:35;352.20;;;333.77;;
17197;SDS011;8715;51.010;6.812;2022-09-29T07:58:00;341.38;;;323.33;;
17197;SDS011;8715;51.010;6.812;2022-09-29T08:00:27;357.90;;;339.23;;
17197;SDS011;8715;51.010;6.812;2022-09-29T08:02:57;344.92;;;328.27;;
17197;SDS011;8715;51.010;6.812;2022-09-29T08:05:26;370.35;;;352.05;;
17197;SDS011;8715;51.010;6.812;2022-09-29T08:07:52;368.35;;;350.73;;
17197;SDS011;8715;51.010;6.812;2022-09-29T08:10:18;363.95;;;345.08;;
17197;SDS011;8715;51.010;6.812;2022-09-29T08:12:43;373.52;;;355.35;;
17197;SDS011;8715;51.010;6.812;2022-09-29T08:15:08;381.23;;;363.07;;
17197;SDS011;8715;51.010;6.812;2022-09-29T08:17:34;381.52;;;363.48;;
17197;SDS011;8715;51.010;6.812;2022-09-29T08:19:59;370.43;;;352.27;;
17197;SDS011;8715;51.010;6.812;2022-09-29T08:22:25;382.67;;;364.17;;
17197;SDS011;8715;51.010;6.812;2022-09-29T08:24:50;382.47;;;364.13;;
17197;SDS011;8715;51.010;6.812;2022-09-29T08:27:15;395.03;;;376.13;;
17197;SDS011;8715;51.010;6.812;2022-09-29T08:29:41;402.95;;;382.55;;
17197;SDS011;8715;51.010;6.812;2022-09-29T08:32:06;376.05;;;357.35;;
17197;SDS011;8715;51.010;6.812;2022-09-29T08:34:32;397.57;;;377.77;;
17197;SDS011;8715;51.010;6.812;2022-09-29T08:36:57;395.67;;;377.17;;
17197;SDS011;8715;51.010;6.812;2022-09-29T08:39:22;387.03;;;368.30;;
17197;SDS011;8715;51.010;6.812;2022-09-29T08:44:50;375.98;;;357.27;;
17197;SDS011;8715;51.010;6.812;2022-09-29T08:49:54;370.90;;;352.23;;
17197;SDS011;8715;51.010;6.812;2022-09-29T08:52:24;352.83;;;334.83;;
17197;SDS011;8715;51.010;6.812;2022-09-29T08:55:52;376.38;;;356.95;;
17197;SDS011;8715;51.010;6.812;2022-09-29T08:57:59;358.30;;;340.48;;
17197;SDS011;8715;51.010;6.812;2022-09-29T09:00:31;377.65;;;357.73;;
17197;SDS011;8715;51.010;6.812;2022-09-29T09:03:07;379.27;;;360.23;;
17197;SDS011;8715;51.010;6.812;2022-09-29T09:08:21;375.33;;;356.92;;
17197;SDS011;8715;51.010;6.812;2022-09-29T09:19:28;379.83;;;361.20;;
17197;SDS011;8715;51.010;6.812;2022-09-29T09:22:23;399.25;;;380.45;;
17197;SDS011;8715;51.010;6.812;2022-09-29T09:25:00;380.73;;;362.25;;
17197;SDS011;8715;51.010;6.812;2022-09-29T09:27:30;401.50;;;382.27;;
17197;SDS011;8715;51.010;6.812;2022-09-29T09:30:00;419.58;;;399.85;;
17197;SDS011;8715;51.010;6.812;2022-09-29T09:32:30;400.58;;;381.83;;
17197;SDS011;8715;51.010;6.812;2022-09-29T09:35:03;412.20;;;392.48;;
17197;SDS011;8715;51.010;6.812;2022-09-29T09:37:34;400.13;;;380.65;;
17197;SDS011;8715;51.010;6.812;2022-09-29T09:42:43;412.17;;;392.98;;
17197;SDS011;8715;51.010;6.812;2022-09-29T09:45:13;425.60;;;406.20;;
17197;SDS011;8715;51.010;6.812;2022-09-29T09:47:45;446.35;;;425.92;;
17197;SDS011;8715;51.010;6.812;2022-09-29T09:50:15;444.05;;;423.98;;
17197;SDS011;8715;51.010;6.812;2022-09-29T09:55:18;440.05;;;420.27;;
17197;SDS011;8715;51.010;6.812;2022-09-29T10:00:22;442.45;;;422.27;;
17197;SDS011;8715;51.010;6.812;2022-09-29T10:02:51;455.80;;;435.70;;
17197;SDS011;8715;51.010;6.812;2022-09-29T10:05:20;479.67;;;459.13;;
17197;SDS011;8715;51.010;6.812;2022-09-29T10:08:16;474.33;;;452.88;;
17197;SDS011;8715;51.010;6.812;2022-09-29T10:10:47;445.38;;;425.10;;
17197;SDS011;8715;51.010;6.812;2022-09-29T10:13:12;467.10;;;446.02;;
17197;SDS011;8715;51.010;6.812;2022-09-29T10:18:23;479.67;;;458.63;;
17197;SDS011;8715;51.010;6.812;2022-09-29T10:20:52;470.90;;;450.23;;
17197;SDS011;8715;51.010;6.812;2022-09-29T10:28:40;480.48;;;459.38;;
17197;SDS011;8715;51.010;6.812;2022-09-29T10:31:16;475.27;;;452.80;;
17197;SDS011;8715;51.010;6.812;2022-09-29T10:33:50;453.25;;;432.75;;
17197;SDS011;8715;51.010;6.812;2022-09-29T10:36:17;459.77;;;438.38;;
17197;SDS011;8715;51.010;6.812;2022-09-29T10:38:45;489.40;;;467.65;;
17197;SDS011;8715;51.010;6.812;2022-09-29T10:41:13;446.60;;;426.85;;
17197;SDS011;8715;51.010;6.812;2022-09-29T10:43:41;463.33;;;442.23;;
17197;SDS011;8715;51.010;6.812;2022-09-29T10:51:39;466.63;;;445.83;;
17197;SDS011;8715;51.010;6.812;2022-09-29T10:54:06;462.50;;;442.27;;
17197;SDS011;8715;51.010;6.812;2022-09-29T10:56:32;451.52;;;431.13;;
17197;SDS011;8715;51.010;6.812;2022-09-29T10:58:58;471.63;;;451.30;;
17197;SDS011;8715;51.010;6.812;2022-09-29T11:01:26;485.80;;;465.35;;
17197;SDS011;8715;51.010;6.812;2022-09-29T11:06:26;496.65;;;475.40;;
17197;SDS011;8715;51.010;6.812;2022-09-29T11:09:00;517.38;;;495.67;;
17197;SDS011;8715;51.010;6.812;2022-09-29T11:11:29;490.38;;;469.23;;
17197;SDS011;8715;51.010;6.812;2022-09-29T11:13:56;495.15;;;473.98;;
17197;SDS011;8715;51.010;6.812;2022-09-29T11:16:25;490.05;;;469.27;;
17197;SDS011;8715;51.010;6.812;2022-09-29T11:19:03;511.55;;;486.25;;
17197;SDS011;8715;51.010;6.812;2022-09-29T11:21:43;506.52;;;478.92;;
17197;SDS011;8715;51.010;6.812;2022-09-29T11:24:28;496.63;;;474.23;;
17197;SDS011;8715;51.010;6.812;2022-09-29T11:30:23;506.98;;;484.33;;
17197;SDS011;8715;51.010;6.812;2022-09-29T11:35:52;530.17;;;507.52;;
17197;SDS011;8715;51.010;6.812;2022-09-29T11:41:38;537.30;;;515.00;;
17197;SDS011;8715;51.010;6.812;2022-09-29T12:00:20;546.00;;;521.95;;
17197;SDS011;8715;51.010;6.812;2022-09-29T12:05:40;525.53;;;503.70;;
17197;SDS011;8715;51.010;6.812;2022-09-29T12:16:11;536.88;;;514.60;;
17197;SDS011;8715;51.010;6.812;2022-09-29T12:18:40;549.90;;;523.58;;
17197;SDS011;8715;51.010;6.812;2022-09-29T12:21:10;557.70;;;534.60;;
17197;SDS011;8715;51.010;6.812;2022-09-29T12:23:38;553.47;;;530.90;;
17197;SDS011;8715;51.010;6.812;2022-09-29T12:26:08;550.25;;;528.08;;
17197;SDS011;8715;51.010;6.812;2022-09-29T12:31:32;539.40;;;516.17;;
17197;SDS011;8715;51.010;6.812;2022-09-29T12:34:01;543.03;;;519.45;;
17197;SDS011;8715;51.010;6.812;2022-09-29T12:41:57;532.90;;;509.23;;
17197;SDS011;8715;51.010;6.812;2022-09-29T12:52:45;519.53;;;497.33;;
17197;SDS011;8715;51.010;6.812;2022-09-29T12:55:14;517.03;;;495.08;;
17197;SDS011;8715;51.010;6.812;2022-09-29T12:57:42;527.45;;;504.60;;
17197;SDS011;8715;51.010;6.812;2022-09-29T13:00:11;516.40;;;494.08;;
17197;SDS011;8715;51.010;6.812;2022-09-29T13:30:57;538.30;;;515.58;;
17197;SDS011;8715;51.010;6.812;2022-09-29T13:33:26;528.95;;;507.35;;
17197;SDS011;8715;51.010;6.812;2022-09-29T13:35:52;534.35;;;512.30;;
17197;SDS011;8715;51.010;6.812;2022-09-29T13:38:19;520.20;;;498.88;;
17197;SDS011;8715;51.010;6.812;2022-09-29T13:46:32;534.78;;;513.13;;
17197;SDS011;8715;51.010;6.812;2022-09-29T13:59:39;539.60;;;517.17;;
17197;SDS011;8715;51.010;6.812;2022-09-29T14:02:39;535.85;;;513.90;;
17197;SDS011;8715;51.010;6.812;2022-09-29T14:13:13;540.88;;;518.08;;
17197;SDS011;8715;51.010;6.812;2022-09-29T14:16:12;548.35;;;526.30;;
17197;SDS011;8715;51.010;6.812;2022-09-29T14:18:51;535.72;;;513.55;;
17197;SDS011;8715;51.010;6.812;2022-09-29T14:32:41;523.35;;;502.13;;
17197;SDS011;8715;51.010;6.812;2022-09-29T14:35:18;518.05;;;496.73;;
17197;SDS011;8715;51.010;6.812;2022-09-29T14:37:52;526.47;;;504.88;;
17197;SDS011;8715;51.010;6.812;2022-09-29T14:40:23;525.25;;;503.65;;
17197;SDS011;8715;51.010;6.812;2022-09-29T14:45:57;548.08;;;525.85;;
17197;SDS011;8715;51.010;6.812;2022-09-29T14:49:39;518.65;;;497.73;;
17197;SDS011;8715;51.010;6.812;2022-09-29T14:55:01;504.77;;;484.20;;
17197;SDS011;8715;51.010;6.812;2022-09-29T14:57:37;508.65;;;487.48;;
17197;SDS011;8715;51.010;6.812;2022-09-29T15:00:15;564.00;;;529.65;;
17197;SDS011;8715;51.010;6.812;2022-09-29T15:02:49;511.00;;;489.52;;
17197;SDS011;8715;51.010;6.812;2022-09-29T15:05:29;514.88;;;491.63;;
17197;SDS011;8715;51.010;6.812;2022-09-29T15:07:59;514.38;;;493.63;;
17197;SDS011;8715;51.010;6.812;2022-09-29T15:10:25;525.30;;;503.80;;
17197;SDS011;8715;51.010;6.812;2022-09-29T15:15:54;505.33;;;483.67;;
17197;SDS011;8715;51.010;6.812;2022-09-29T15:24:11;503.08;;;481.95;;
17197;SDS011;8715;51.010;6.812;2022-09-29T15:26:40;512.55;;;491.33;;
17197;SDS011;8715;51.010;6.812;2022-09-29T15:29:07;506.45;;;485.17;;
17197;SDS011;8715;51.010;6.812;2022-09-29T15:31:33;512.30;;;490.40;;
17197;SDS011;8715;51.010;6.812;2022-09-29T15:34:00;506.48;;;485.33;;
17197;SDS011;8715;51.010;6.812;2022-09-29T15:36:27;502.60;;;480.95;;
17197;SDS011;8715;51.010;6.812;2022-09-29T15:42:16;492.27;;;471.48;;
17197;SDS011;8715;51.010;6.812;2022-09-29T15:44:49;503.90;;;483.33;;
17197;SDS011;8715;51.010;6.812;2022-09-29T15:47:26;518.05;;;496.90;;
17197;SDS011;8715;51.010;6.812;2022-09-29T15:49:53;508.08;;;486.80;;
17197;SDS011;8715;51.010;6.812;2022-09-29T15:52:19;498.17;;;477.88;;
17197;SDS011;8715;51.010;6.812;2022-09-29T15:54:48;481.48;;;461.35;;
17197;SDS011;8715;51.010;6.812;2022-09-29T15:57:51;490.83;;;470.13;;
17197;SDS011;8715;51.010;6.812;2022-09-29T16:05:26;496.98;;;476.15;;
17197;SDS011;8715;51.010;6.812;2022-09-29T16:07:54;497.65;;;477.55;;
17197;SDS011;8715;51.010;6.812;2022-09-29T16:10:26;518.58;;;497.88;;
17197;SDS011;8715;51.010;6.812;2022-09-29T16:18:07;493.13;;;472.73;;
17197;SDS011;8715;51.010;6.812;2022-09-29T16:20:34;484.60;;;464.17;;
17197;SDS011;8715;51.010;6.812;2022-09-29T16:23:07;513.33;;;491.85;;
17197;SDS011;8715;51.010;6.812;2022-09-29T16:25:42;494.38;;;473.55;;
17197;SDS011;8715;51.010;6.812;2022-09-29T16:28:25;494.98;;;474.73;;
17197;SDS011;8715;51.010;6.812;2022-09-29T16:31:01;485.35;;;464.98;;
17197;SDS011;8715;51.010;6.812;2022-09-29T16:33:45;531.72;;;509.25;;
17197;SDS011;8715;51.010;6.812;2022-09-29T16:38:43;459.63;;;441.00;;
17197;SDS011;8715;51.010;6.812;2022-09-29T16:43:41;472.27;;;453.33;;
17197;SDS011;8715;51.010;6.812;2022-09-29T16:46:09;482.58;;;462.35;;
17197;SDS011;8715;51.010;6.812;2022-09-29T16:48:42;486.92;;;467.05;;
17197;SDS011;8715;51.010;6.812;2022-09-29T16:51:13;481.48;;;461.27;;
17197;SDS011;8715;51.010;6.812;2022-09-29T16:53:43;485.58;;;465.88;;
17197;SDS011;8715;51.010;6.812;2022-09-29T16:56:15;502.17;;;481.55;;
17197;SDS011;8715;51.010;6.812;2022-09-29T16:58:42;505.10;;;484.85;;
17197;SDS011;8715;51.010;6.812;2022-09-29T17:01:08;475.20;;;455.02;;
17197;SDS011;8715;51.010;6.812;2022-09-29T17:03:37;468.42;;;449.15;;
17197;SDS011;8715;51.010;6.812;2022-09-29T17:06:02;457.25;;;438.17;;
17197;SDS011;8715;51.010;6.812;2022-09-29T17:08:29;474.67;;;454.67;;
17197;SDS011;8715;51.010;6.812;2022-09-29T17:10:58;475.25;;;455.83;;
17197;SDS011;8715;51.010;6.812;2022-09-29T17:13:29;476.70;;;456.60;;
17197;SDS011;8715;51.010;6.812;2022-09-29T17:15:56;475.83;;;455.52;;
17197;SDS011;8715;51.010;6.812;2022-09-29T17:18:22;446.83;;;426.88;;
17197;SDS011;8715;51.010;6.812;2022-09-29T17:20:50;461.85;;;442.55;;
17197;SDS011;8715;51.010;6.812;2022-09-29T17:23:16;455.00;;;436.42;;
17197;SDS011;8715;51.010;6.812;2022-09-29T17:25:42;452.67;;;432.70;;
17197;SDS011;8715;51.010;6.812;2022-09-29T17:28:19;452.90;;;434.48;;
17197;SDS011;8715;51.010;6.812;2022-09-29T17:30:49;442.83;;;423.63;;
17197;SDS011;8715;51.010;6.812;2022-09-29T17:33:15;430.27;;;412.45;;
17197;SDS011;8715;51.010;6.812;2022-09-29T17:35:43;453.83;;;434.85;;
17197;SDS011;8715;51.010;6.812;2022-09-29T17:38:10;443.88;;;425.77;;
17197;SDS011;8715;51.010;6.812;2022-09-29T17:40:56;458.45;;;439.05;;
17197;SDS011;8715;51.010;6.812;2022-09-29T17:43:26;418.90;;;401.00;;
17197;SDS011;8715;51.010;6.812;2022-09-29T17:45:56;432.67;;;414.55;;
17197;SDS011;8715;51.010;6.812;2022-09-29T17:48:22;426.15;;;408.02;;
17197;SDS011;8715;51.010;6.812;2022-09-29T17:50:52;414.25;;;396.42;;
17197;SDS011;8715;51.010;6.812;2022-09-29T17:53:20;432.75;;;414.50;;
17197;SDS011;8715;51.010;6.812;2022-09-29T17:55:49;426.00;;;408.17;;
17197;SDS011;8715;51.010;6.812;2022-09-29T17:58:18;444.00;;;425.15;;
17197;SDS011;8715;51.010;6.812;2022-09-29T18:00:45;435.92;;;417.20;;
17197;SDS011;8715;51.010;6.812;2022-09-29T18:03:13;432.73;;;414.90;;
17197;SDS011;8715;51.010;6.812;2022-09-29T18:05:40;442.70;;;423.92;;